createdAt,value
2019-05-05T00:00:06.668Z,5.53
2019-05-05T00:02:47.328Z,6.73
2019-05-05T00:05:26.172Z,5.97
2019-05-05T00:07:56.540Z,5.10
2019-05-05T00:10:34.793Z,6.67
2019-05-05T00:13:22.906Z,7.00
2019-05-05T00:16:15.062Z,7.60
2019-05-05T00:18:46.578Z,9.30
2019-05-05T00:21:16.655Z,8.13
2019-05-05T00:23:49.527Z,4.63
2019-05-05T00:26:19.673Z,6.63
2019-05-05T00:28:49.750Z,7.43
2019-05-05T00:31:24.242Z,5.43
2019-05-05T00:33:54.420Z,12.83
2019-05-05T00:36:24.828Z,8.63
2019-05-05T00:38:58.787Z,5.67
2019-05-05T00:41:28.809Z,8.83
2019-05-05T00:43:58.706Z,9.17
2019-05-05T00:46:59.256Z,6.13
2019-05-05T00:49:37.426Z,4.90
2019-05-05T00:52:01.922Z,6.13
2019-05-05T00:54:32.002Z,5.07
2019-05-05T00:57:04.316Z,10.67
2019-05-05T00:59:34.888Z,5.03
2019-05-05T01:02:38.668Z,4.93
2019-05-05T01:05:26.384Z,5.67
2019-05-05T01:07:59.977Z,7.13
2019-05-05T01:10:30.206Z,8.87
2019-05-05T01:13:00.273Z,15.33
2019-05-05T01:15:30.431Z,5.80
2019-05-05T01:18:02.161Z,10.83
2019-05-05T01:20:34.296Z,7.90
2019-05-05T01:23:06.435Z,8.13
2019-05-05T01:25:38.094Z,10.27
2019-05-05T01:28:08.725Z,7.60
2019-05-05T01:30:41.427Z,6.60
2019-05-05T01:33:17.383Z,6.30
2019-05-05T01:35:47.548Z,6.40
2019-05-05T01:38:28.721Z,11.97
2019-05-05T01:41:16.540Z,6.57
2019-05-05T01:43:47.152Z,4.90
2019-05-05T01:46:17.104Z,6.87
2019-05-05T01:48:47.185Z,6.63
2019-05-05T01:51:17.348Z,4.10
2019-05-05T01:53:50.155Z,8.17
2019-05-05T01:56:20.240Z,10.60
2019-05-05T01:58:50.705Z,4.13
2019-05-05T02:01:20.828Z,9.70
2019-05-05T02:03:54.918Z,5.87
2019-05-05T02:06:25.059Z,6.73
2019-05-05T02:08:55.329Z,6.30
2019-05-05T02:11:25.390Z,4.43
2019-05-05T02:13:57.282Z,6.10
2019-05-05T02:16:27.409Z,7.30
2019-05-05T02:18:57.523Z,7.73
2019-05-05T02:21:27.717Z,4.50
2019-05-05T02:23:57.911Z,6.20
2019-05-05T02:26:28.143Z,7.63
2019-05-05T02:29:08.392Z,7.47
2019-05-05T02:31:56.706Z,7.13
2019-05-05T02:34:29.069Z,5.83
2019-05-05T02:36:59.514Z,5.07
2019-05-05T02:39:34.247Z,6.10
2019-05-05T02:42:05.758Z,8.60
2019-05-05T02:44:37.205Z,8.50
2019-05-05T02:47:25.463Z,6.00
2019-05-05T02:49:57.027Z,8.30
2019-05-05T02:52:27.356Z,5.93
2019-05-05T02:54:57.618Z,5.60
2019-05-05T02:57:28.304Z,6.57
2019-05-05T03:00:04.554Z,6.87
2019-05-05T03:02:36.163Z,5.27
2019-05-05T03:05:06.400Z,5.40
2019-05-05T03:07:37.702Z,6.50
2019-05-05T03:10:08.093Z,7.03
2019-05-05T03:12:40.743Z,5.00
2019-05-05T03:15:15.616Z,4.67
2019-05-05T03:17:47.169Z,7.17
2019-05-05T03:20:17.415Z,5.93
2019-05-05T03:22:50.105Z,6.73
2019-05-05T03:25:20.516Z,8.83
2019-05-05T03:27:50.537Z,7.33
2019-05-05T03:30:21.017Z,6.17
2019-05-05T03:32:51.017Z,5.47
2019-05-05T03:35:21.280Z,5.63
2019-05-05T03:37:51.465Z,6.23
2019-05-05T03:40:29.192Z,6.73
2019-05-05T03:43:14.587Z,6.43
2019-05-05T03:45:54.118Z,7.40
2019-05-05T03:48:24.580Z,6.30
2019-05-05T03:50:58.323Z,6.50
2019-05-05T03:53:29.072Z,6.20
2019-05-05T03:56:00.834Z,7.10
2019-05-05T03:58:31.196Z,6.20
2019-05-05T04:02:03.922Z,6.70
2019-05-05T04:04:37.318Z,5.53
2019-05-05T04:07:07.629Z,6.07
2019-05-05T04:09:37.892Z,5.90
2019-05-05T04:12:08.493Z,4.07
2019-05-05T04:14:40.824Z,6.30
2019-05-05T04:17:28.569Z,6.37
2019-05-05T04:20:00.341Z,6.15
2019-05-05T04:22:34.160Z,6.93
2019-05-05T04:25:04.683Z,5.65
2019-05-05T04:27:35.484Z,5.95
2019-05-05T04:30:06.789Z,5.53
2019-05-05T04:32:36.739Z,6.23
2019-05-05T04:35:07.056Z,9.20
2019-05-05T04:37:37.258Z,4.65
2019-05-05T04:40:07.353Z,6.50
2019-05-05T04:42:37.394Z,3.67
2019-05-05T04:45:07.539Z,9.73
2019-05-05T04:47:39.977Z,19.13
2019-05-05T04:50:44.520Z,5.07
2019-05-05T04:53:19.482Z,3.73
2019-05-05T04:55:49.487Z,2.73
2019-05-05T11:08:37.210Z,3.30
2019-05-05T11:11:07.638Z,4.40
2019-05-05T11:13:37.687Z,3.53
2019-05-05T11:16:07.977Z,2.40
2019-05-05T11:18:38.198Z,8.73
2019-05-05T11:21:09.856Z,7.43
2019-05-05T11:23:41.425Z,5.50
2019-05-05T11:26:11.620Z,2.90
2019-05-05T11:28:41.607Z,3.57
2019-05-05T11:34:24.664Z,5.20
2019-05-05T11:37:05.361Z,6.30
2019-05-05T11:39:35.297Z,6.23
2019-05-05T11:42:07.381Z,6.30
2019-05-05T11:44:37.503Z,2.97
2019-05-05T11:47:07.643Z,5.73
2019-05-05T11:49:46.949Z,3.20
2019-05-05T11:52:17.223Z,4.97
2019-05-05T11:54:47.378Z,6.63
2019-05-05T11:58:24.828Z,5.27
2019-05-05T12:00:34.736Z,5.43
2019-05-05T12:03:05.129Z,4.80
2019-05-05T12:06:18.376Z,3.50
2019-05-05T12:08:48.554Z,4.70
2019-05-05T12:11:20.526Z,3.63
2019-05-05T12:13:50.850Z,2.63
2019-05-05T12:16:39.193Z,5.27
2019-05-05T12:19:15.454Z,5.70
2019-05-05T12:21:49.282Z,2.77
2019-05-05T12:24:25.724Z,5.83
2019-05-05T12:27:14.233Z,5.70
2019-05-05T12:29:54.658Z,4.70
2019-05-05T12:32:24.823Z,7.63
2019-05-05T12:34:55.029Z,2.77
2019-05-05T12:37:25.879Z,7.10
2019-05-05T12:39:55.993Z,5.43
2019-05-05T12:42:34.141Z,3.40
2019-05-05T12:45:09.971Z,5.80
2019-05-05T12:48:01.484Z,5.77
2019-05-05T12:50:36.303Z,5.10
2019-05-05T12:53:49.240Z,4.73
2019-05-05T12:56:30.188Z,8.07
2019-05-05T12:59:18.650Z,4.87
2019-05-05T13:02:04.083Z,8.40
2019-05-05T13:05:00.692Z,8.73
2019-05-05T13:07:34.107Z,6.40
2019-05-05T13:10:17.811Z,8.23
2019-05-05T13:13:07.984Z,6.30
2019-05-05T13:15:40.721Z,7.20
2019-05-05T13:18:16.999Z,12.53
2019-05-05T13:21:19.968Z,9.00
2019-05-05T13:24:08.954Z,7.27
2019-05-05T13:27:09.680Z,7.33
2019-05-05T13:29:44.251Z,9.43
2019-05-05T13:32:16.574Z,10.00
2019-05-05T13:34:46.918Z,10.90
2019-05-05T13:37:24.450Z,6.17
2019-05-05T13:39:55.062Z,6.17
2019-05-05T13:42:41.284Z,8.53
2019-05-05T13:45:34.292Z,9.87
2019-05-05T13:48:04.776Z,4.80
2019-05-05T13:50:40.750Z,5.70
2019-05-05T13:53:14.394Z,10.57
2019-05-05T13:55:47.675Z,5.80
2019-05-05T13:58:22.084Z,10.40
2019-05-05T14:00:54.651Z,7.93
2019-05-05T14:03:25.201Z,6.13
2019-05-05T14:05:55.594Z,7.93
2019-05-05T14:08:26.125Z,13.83
2019-05-05T14:10:56.541Z,9.43
2019-05-05T14:13:26.934Z,8.03
2019-05-05T14:16:03.826Z,7.70
2019-05-05T14:18:36.943Z,7.00
2019-05-05T14:21:07.695Z,4.30
2019-05-05T14:23:58.938Z,9.33
2019-05-05T14:26:32.125Z,8.40
2019-05-05T14:29:05.185Z,7.90
2019-05-05T14:32:20.376Z,8.60
2019-05-05T14:35:08.788Z,6.93
2019-05-05T14:38:08.367Z,13.43
2019-05-05T14:40:39.169Z,7.10
2019-05-05T14:43:16.770Z,6.83
2019-05-05T14:45:50.975Z,6.73
2019-05-05T14:48:27.289Z,6.00
2019-05-05T14:51:21.482Z,10.77
2019-05-05T14:53:51.239Z,7.13
2019-05-05T14:56:36.198Z,8.30
2019-05-05T14:58:58.544Z,10.40
2019-05-05T15:01:40.097Z,7.77
2019-05-05T15:04:45.335Z,13.80
2019-05-05T15:07:14.521Z,12.07
2019-05-05T15:09:56.058Z,10.70
2019-05-05T15:12:35.756Z,10.90
2019-05-05T15:15:14.234Z,13.07
2019-05-05T15:17:46.108Z,13.50
2019-05-05T15:20:24.524Z,14.07
2019-05-05T15:22:54.737Z,10.70
2019-05-05T15:25:25.479Z,9.80
2019-05-05T15:27:57.693Z,10.53
2019-05-05T15:31:38.062Z,9.93
2019-05-05T15:34:11.341Z,10.07
2019-05-05T15:36:43.953Z,6.63
2019-05-05T15:39:14.049Z,11.87
2019-05-05T15:41:45.917Z,10.23
2019-05-05T15:44:19.833Z,10.33
2019-05-05T15:46:58.036Z,16.07
2019-05-05T15:50:06.149Z,11.90
2019-05-05T15:52:38.648Z,14.13
2019-05-05T15:55:15.177Z,9.10
2019-05-05T15:57:53.278Z,15.70
2019-05-05T16:00:46.539Z,13.93
2019-05-05T16:03:24.881Z,17.67
2019-05-05T16:05:59.336Z,11.13
2019-05-05T16:08:31.304Z,17.23
2019-05-05T16:11:15.370Z,11.63
2019-05-05T16:14:14.435Z,20.37
2019-05-05T16:17:13.847Z,12.67
2019-05-05T16:23:30.382Z,17.00
2019-05-05T16:26:03.824Z,7.50
2019-05-05T16:37:28.434Z,7.33
2019-05-05T16:44:15.822Z,8.73
2019-05-05T16:54:18.671Z,8.97
2019-05-05T16:56:49.455Z,9.00
2019-05-05T16:59:24.263Z,14.00
2019-05-05T17:02:06.309Z,11.73
2019-05-05T17:05:20.542Z,9.50
2019-05-05T17:23:16.730Z,12.27
2019-05-05T17:26:17.414Z,15.07
2019-05-05T17:29:16.704Z,16.27
2019-05-05T17:31:56.695Z,13.97
2019-05-05T17:34:31.135Z,11.47
2019-05-05T17:37:56.258Z,16.73
2019-05-05T17:41:10.967Z,8.67
2019-05-05T17:44:05.369Z,19.63
2019-05-05T17:47:26.423Z,14.50
2019-05-05T17:50:06.820Z,14.60
2019-05-05T17:52:56.928Z,12.50
2019-05-05T17:55:54.934Z,14.43
2019-05-05T17:58:28.274Z,11.10
2019-05-05T18:01:00.323Z,11.00
2019-05-05T18:03:33.974Z,12.67
2019-05-05T18:06:18.142Z,11.20
2019-05-05T18:10:07.836Z,13.77
2019-05-05T18:13:08.361Z,9.70
2019-05-05T18:18:59.507Z,17.47
2019-05-05T18:22:28.350Z,9.93
2019-05-05T18:25:01.980Z,11.33
2019-05-05T18:28:27.704Z,14.23
2019-05-05T18:31:19.200Z,11.37
2019-05-05T18:33:49.371Z,6.90
2019-05-05T18:36:19.797Z,11.67
2019-05-05T18:38:49.857Z,13.10
2019-05-05T18:41:27.157Z,12.10
2019-05-05T18:44:05.098Z,15.97
2019-05-05T18:46:37.334Z,13.40
2019-05-05T18:49:29.721Z,18.83
2019-05-05T18:52:05.601Z,8.17
2019-05-05T18:55:06.146Z,13.37
2019-05-05T18:57:48.331Z,15.63
2019-05-05T19:00:55.257Z,9.33
2019-05-05T19:04:26.360Z,12.20
2019-05-05T19:07:33.569Z,11.10
2019-05-05T19:10:09.988Z,14.23
2019-05-05T19:16:55.277Z,8.40
2019-05-05T19:19:34.566Z,6.93
2019-05-05T19:22:10.030Z,9.73
2019-05-05T19:24:47.381Z,21.60
2019-05-05T19:27:18.092Z,13.07
2019-05-05T19:30:25.594Z,14.83
2019-05-05T19:32:59.808Z,18.23
2019-05-05T19:36:05.045Z,14.50
2019-05-05T19:38:45.894Z,9.57
2019-05-05T19:41:19.441Z,13.33
2019-05-05T19:43:54.909Z,14.33
2019-05-05T19:46:36.178Z,11.70
2019-05-05T19:49:16.525Z,10.27
2019-05-05T19:51:54.078Z,10.13
2019-05-05T19:54:28.505Z,10.33
2019-05-05T19:57:03.794Z,11.37
2019-05-05T19:59:37.205Z,10.93
2019-05-05T20:02:17.597Z,12.17
2019-05-05T20:04:50.947Z,14.30
2019-05-05T20:07:22.188Z,16.40
2019-05-05T20:09:57.287Z,16.93
2019-05-05T20:12:33.515Z,15.17
2019-05-05T20:15:20.454Z,11.13
2019-05-05T20:17:56.021Z,19.10
2019-05-05T20:20:26.823Z,10.57
2019-05-05T20:22:59.094Z,12.90
2019-05-05T20:25:31.214Z,20.07
2019-05-05T20:28:05.431Z,14.23
2019-05-05T20:30:51.194Z,16.00
2019-05-05T20:33:42.570Z,13.97
2019-05-05T20:36:25.423Z,15.30
2019-05-05T20:39:09.783Z,9.67
2019-05-05T20:41:46.968Z,11.97
2019-05-05T20:44:18.038Z,13.90
2019-05-05T20:47:34.444Z,14.10
2019-05-05T20:50:16.577Z,17.90
2019-05-05T20:52:50.648Z,14.10
2019-05-05T21:03:01.667Z,9.33
2019-05-05T21:05:57.056Z,11.23
2019-05-05T21:08:57.692Z,14.60
2019-05-05T21:11:54.568Z,11.47
2019-05-05T21:14:55.737Z,16.00
2019-05-05T21:18:06.176Z,14.43
2019-05-05T21:21:10.260Z,14.70
2019-05-05T21:23:59.530Z,8.20
2019-05-05T21:30:53.795Z,12.60
2019-05-05T21:33:47.248Z,13.20
2019-05-05T21:37:05.130Z,13.57
2019-05-05T22:00:04.345Z,23.67
2019-05-05T22:03:11.305Z,16.73
2019-05-05T22:06:21.299Z,22.17
2019-05-05T22:52:31.398Z,15.57
2019-05-05T22:55:08.946Z,13.13
2019-05-05T22:57:42.228Z,17.83
2019-05-05T23:00:26.060Z,14.57
2019-05-05T23:03:13.699Z,16.83
2019-05-05T23:06:00.857Z,11.80
2019-05-05T23:08:48.441Z,21.83
2019-05-05T23:11:20.442Z,13.90
2019-05-05T23:13:57.285Z,13.17
2019-05-05T23:16:44.311Z,18.97
2019-05-05T23:20:13.868Z,18.67
2019-05-05T23:23:01.416Z,10.87
2019-05-05T23:25:39.973Z,21.83
2019-05-05T23:28:11.939Z,24.63
2019-05-05T23:30:50.443Z,13.80
2019-05-05T23:33:24.987Z,13.40
2019-05-05T23:36:09.853Z,12.43
2019-05-05T23:38:45.428Z,13.20
2019-05-05T23:41:19.093Z,22.73
2019-05-05T23:43:51.260Z,11.80
2019-05-05T23:46:26.797Z,14.57
2019-05-05T23:48:58.293Z,14.00
2019-05-05T23:51:31.674Z,16.20
2019-05-05T23:54:07.028Z,9.43
2019-05-05T23:56:37.229Z,13.10
2019-05-05T23:59:11.010Z,15.13
